createdAt,value
2023-03-15T00:01:14.928Z,0.32
2023-03-15T00:03:43.370Z,0.50
2023-03-15T00:06:11.556Z,0.88
2023-03-15T00:08:38.857Z,0.40
2023-03-15T00:11:06.852Z,0.60
2023-03-15T00:13:34.319Z,0.40
2023-03-15T00:16:03.725Z,0.57
2023-03-15T00:18:31.355Z,0.40
2023-03-15T00:20:59.033Z,0.60
2023-03-15T00:23:26.210Z,0.60
2023-03-15T00:25:54.233Z,0.55
2023-03-15T00:28:22.202Z,0.40
2023-03-15T00:30:49.531Z,0.22
2023-03-15T00:33:18.637Z,0.50
2023-03-15T00:35:46.161Z,0.47
2023-03-15T00:38:14.319Z,0.50
2023-03-15T00:40:42.445Z,0.45
2023-03-15T00:43:09.601Z,0.38
2023-03-15T00:45:37.032Z,0.45
2023-03-15T00:48:04.340Z,0.50
2023-03-15T00:50:31.389Z,0.50
2023-03-15T00:52:58.416Z,0.28
2023-03-15T00:55:27.091Z,0.40
2023-03-15T00:57:54.146Z,0.40
2023-03-15T01:00:24.958Z,0.38
2023-03-15T01:02:54.502Z,0.40
2023-03-15T01:05:22.219Z,0.40
2023-03-15T01:07:49.667Z,0.70
2023-03-15T01:10:17.978Z,0.40
2023-03-15T01:12:45.546Z,0.50
2023-03-15T01:15:15.314Z,0.40
2023-03-15T01:17:43.052Z,0.50
2023-03-15T01:20:13.813Z,0.38
2023-03-15T01:22:41.086Z,0.50
2023-03-15T01:25:09.507Z,0.50
2023-03-15T01:27:36.657Z,0.47
2023-03-15T01:30:04.435Z,0.50
2023-03-15T01:32:31.614Z,0.28
2023-03-15T01:34:58.661Z,0.40
2023-03-15T01:37:26.550Z,0.40
2023-03-15T01:39:53.863Z,0.40
2023-03-15T01:42:21.132Z,0.43
2023-03-15T01:45:00.160Z,0.30
2023-03-15T01:47:28.451Z,0.43
2023-03-15T01:50:15.756Z,0.50
2023-03-15T01:52:43.420Z,0.50
2023-03-15T01:55:15.488Z,0.40
2023-03-15T01:57:56.842Z,0.30
2023-03-15T02:00:24.053Z,0.30
2023-03-15T02:02:54.575Z,0.40
2023-03-15T02:05:27.632Z,0.30
2023-03-15T02:07:56.122Z,0.30
2023-03-15T02:10:38.315Z,0.40
2023-03-15T02:13:07.062Z,0.20
2023-03-15T02:15:34.217Z,0.32
2023-03-15T02:18:01.285Z,0.40
2023-03-15T02:20:52.252Z,0.52
2023-03-15T02:23:22.477Z,0.32
2023-03-15T02:25:58.529Z,0.52
2023-03-15T02:28:26.643Z,0.30
2023-03-15T02:30:53.747Z,0.43
2023-03-15T02:33:33.125Z,0.30
2023-03-15T02:36:30.014Z,0.40
2023-03-15T02:38:57.791Z,0.75
2023-03-15T02:41:42.467Z,0.55
2023-03-15T02:44:20.407Z,0.60
2023-03-15T02:46:50.667Z,0.40
2023-03-15T02:49:18.778Z,0.40
2023-03-15T02:51:45.897Z,0.68
2023-03-15T02:54:12.987Z,0.50
2023-03-15T02:56:40.096Z,0.50
2023-03-15T02:59:07.225Z,0.50
2023-03-15T03:01:37.353Z,0.47
2023-03-15T03:04:05.364Z,0.30
2023-03-15T03:06:32.630Z,0.40
2023-03-15T03:08:59.758Z,0.45
2023-03-15T03:11:26.826Z,0.50
2023-03-15T03:13:53.959Z,0.38
2023-03-15T03:16:23.262Z,0.60
2023-03-15T03:18:51.468Z,0.52
2023-03-15T03:21:18.680Z,0.43
2023-03-15T03:23:46.400Z,0.40
2023-03-15T03:26:17.316Z,0.30
2023-03-15T03:28:47.239Z,0.38
2023-03-15T03:31:24.193Z,0.30
2023-03-15T03:33:51.902Z,0.28
2023-03-15T03:36:19.560Z,0.40
2023-03-15T03:38:47.870Z,0.30
2023-03-15T03:41:15.376Z,0.40
2023-03-15T03:43:42.677Z,0.40
2023-03-15T03:46:10.440Z,0.30
2023-03-15T03:48:37.576Z,0.50
2023-03-15T03:51:05.035Z,0.43
2023-03-15T03:53:32.113Z,0.38
2023-03-15T03:55:59.220Z,0.30
2023-03-15T03:58:26.308Z,0.30
2023-03-15T04:00:56.355Z,0.45
2023-03-15T04:03:27.401Z,0.28
2023-03-15T04:05:56.344Z,0.20
2023-03-15T04:08:25.649Z,0.20
2023-03-15T04:10:58.610Z,0.40
2023-03-15T04:13:26.054Z,0.40
2023-03-15T04:15:57.797Z,0.40
2023-03-15T04:18:25.657Z,0.50
2023-03-15T04:20:54.781Z,0.50
2023-03-15T04:23:25.253Z,0.40
2023-03-15T04:25:55.338Z,0.50
2023-03-15T04:28:23.047Z,0.50
2023-03-15T04:30:51.266Z,0.50
2023-03-15T04:33:18.441Z,0.50
2023-03-15T04:35:45.635Z,0.50
2023-03-15T04:38:12.768Z,0.45
2023-03-15T04:40:39.900Z,0.70
2023-03-15T04:43:06.990Z,0.55
2023-03-15T04:45:34.248Z,0.70
2023-03-15T04:48:02.474Z,0.70
2023-03-15T04:50:30.745Z,0.93
2023-03-15T04:53:01.751Z,1.02
2023-03-15T04:55:29.045Z,0.80
2023-03-15T04:57:56.954Z,1.00
2023-03-15T05:00:24.533Z,0.82
2023-03-15T05:02:55.093Z,0.93
2023-03-15T05:05:24.116Z,0.88
2023-03-15T05:07:51.822Z,1.00
2023-03-15T05:10:19.691Z,1.27
2023-03-15T05:12:46.815Z,0.90
2023-03-15T05:15:14.179Z,0.98
2023-03-15T05:17:41.325Z,1.25
2023-03-15T05:20:12.784Z,1.23
2023-03-15T05:22:40.963Z,1.42
2023-03-15T05:25:10.133Z,0.90
2023-03-15T05:27:38.383Z,1.10
2023-03-15T05:30:07.806Z,1.20
2023-03-15T05:32:35.408Z,0.95
2023-03-15T05:35:03.617Z,1.13
2023-03-15T05:37:32.440Z,1.15
2023-03-15T05:40:01.499Z,1.30
2023-03-15T05:42:29.453Z,0.82
2023-03-15T05:44:57.460Z,1.00
2023-03-15T05:47:25.041Z,1.10
2023-03-15T05:49:53.450Z,1.75
2023-03-15T05:52:20.510Z,1.30
2023-03-15T05:54:47.979Z,0.93
2023-03-15T05:57:15.091Z,1.27
2023-03-15T05:59:42.104Z,0.77
2023-03-15T06:02:09.536Z,1.02
2023-03-15T06:04:38.144Z,0.90
2023-03-15T06:07:05.797Z,1.08
2023-03-15T06:09:33.022Z,0.98
2023-03-15T06:12:00.172Z,0.80
2023-03-15T06:14:28.041Z,0.90
2023-03-15T06:16:55.468Z,0.75
2023-03-15T06:19:24.155Z,0.70
2023-03-15T06:21:51.435Z,0.85
2023-03-15T06:24:18.559Z,0.90
2023-03-15T06:26:45.610Z,1.00
2023-03-15T06:29:12.732Z,1.00
2023-03-15T06:31:39.833Z,0.85
2023-03-15T06:34:06.931Z,1.00
2023-03-15T06:36:34.240Z,1.00
2023-03-15T06:39:02.924Z,0.85
2023-03-15T06:41:30.304Z,0.93
2023-03-15T06:43:57.385Z,1.00
2023-03-15T06:46:24.555Z,0.90
2023-03-15T06:48:51.699Z,1.00
2023-03-15T06:51:18.939Z,1.00
2023-03-15T06:53:46.077Z,0.80
2023-03-15T06:56:13.182Z,0.98
2023-03-15T06:58:40.694Z,0.70
2023-03-15T07:01:07.864Z,0.82
2023-03-15T07:03:34.935Z,0.80
2023-03-15T07:06:02.098Z,0.93
2023-03-15T07:08:29.223Z,0.90
2023-03-15T07:10:56.393Z,1.15
2023-03-15T07:13:23.864Z,1.08
2023-03-15T07:15:55.064Z,1.00
2023-03-15T07:18:22.638Z,0.80
2023-03-15T07:21:00.284Z,1.13
2023-03-15T07:23:28.242Z,1.10
2023-03-15T07:25:56.060Z,1.30
2023-03-15T07:28:25.405Z,1.35
2023-03-15T07:30:54.217Z,1.10
2023-03-15T07:33:24.901Z,1.00
2023-03-15T07:35:56.259Z,1.00
2023-03-15T07:38:26.741Z,0.98
2023-03-15T07:40:53.851Z,0.82
2023-03-15T07:43:21.448Z,1.17
2023-03-15T07:45:51.026Z,0.90
2023-03-15T07:48:18.135Z,1.10
2023-03-15T07:50:45.895Z,1.10
2023-03-15T07:53:12.977Z,1.13
2023-03-15T07:55:40.211Z,1.00
2023-03-15T07:58:07.393Z,1.25
2023-03-15T08:00:34.682Z,0.95
2023-03-15T08:03:01.810Z,0.98
2023-03-15T08:05:29.278Z,1.30
2023-03-15T08:07:56.833Z,1.20
2023-03-15T08:10:24.322Z,1.20
2023-03-15T08:12:51.521Z,1.20
2023-03-15T08:15:19.621Z,1.35
2023-03-15T08:17:48.806Z,1.50
2023-03-15T08:20:17.927Z,1.58
2023-03-15T08:22:49.662Z,1.50
2023-03-15T08:27:47.054Z,1.30
2023-03-15T08:30:16.489Z,1.98
2023-03-15T08:32:46.396Z,2.03
2023-03-15T08:35:16.128Z,1.88
2023-03-15T08:37:48.055Z,1.52
2023-03-15T08:40:19.272Z,1.90
2023-03-15T08:42:46.728Z,1.77
2023-03-15T08:45:13.886Z,1.92
2023-03-15T08:47:40.930Z,1.60
2023-03-15T08:50:12.537Z,1.58
2023-03-15T08:52:40.360Z,1.80
2023-03-15T08:55:08.965Z,1.80
2023-03-15T08:57:36.047Z,1.90
2023-03-15T09:00:22.914Z,1.80
2023-03-15T09:02:52.275Z,1.70
2023-03-15T09:05:21.198Z,1.80
2023-03-15T09:07:49.198Z,2.00
2023-03-15T09:10:17.827Z,1.90
2023-03-15T09:12:52.309Z,2.05
2023-03-15T09:15:19.606Z,1.98
2023-03-15T09:17:46.702Z,2.17
2023-03-15T09:20:14.864Z,2.25
2023-03-15T09:22:43.476Z,2.45
2023-03-15T09:25:11.111Z,2.30
2023-03-15T09:27:38.562Z,2.13
2023-03-15T09:30:06.818Z,2.45
2023-03-15T09:32:36.380Z,1.90
2023-03-15T09:35:05.897Z,2.30
2023-03-15T09:37:33.943Z,2.35
2023-03-15T09:40:02.044Z,1.80
2023-03-15T09:43:03.496Z,1.58
2023-03-15T09:46:08.095Z,1.77
2023-03-15T09:49:14.447Z,2.00
2023-03-15T09:52:01.903Z,2.00
2023-03-15T09:54:41.195Z,1.77
2023-03-15T09:57:23.213Z,1.88
2023-03-15T09:59:54.198Z,2.20
2023-03-15T10:02:29.444Z,2.10
2023-03-15T10:05:07.663Z,1.80
2023-03-15T10:07:36.227Z,1.67
2023-03-15T10:10:05.081Z,1.58
2023-03-15T10:12:44.048Z,1.80
2023-03-15T10:15:29.834Z,1.70
2023-03-15T10:17:59.814Z,1.90
2023-03-15T10:20:36.343Z,2.20
2023-03-15T10:23:20.680Z,1.73
2023-03-15T10:25:51.326Z,1.90
2023-03-15T10:28:37.600Z,1.90
2023-03-15T10:31:22.942Z,1.85
2023-03-15T10:33:59.854Z,1.75
2023-03-15T10:36:27.274Z,1.60
2023-03-15T10:38:54.421Z,1.90
2023-03-15T10:41:43.879Z,1.88
2023-03-15T10:44:26.243Z,2.00
2023-03-15T10:47:22.720Z,2.15
2023-03-15T10:49:56.402Z,2.08
2023-03-15T10:52:35.629Z,2.30
2023-03-15T10:55:11.747Z,2.20
2023-03-15T10:57:42.712Z,2.13
2023-03-15T11:00:32.735Z,2.30
2023-03-15T11:03:06.894Z,2.30
2023-03-15T11:05:44.400Z,2.17
2023-03-15T11:08:15.857Z,2.50
2023-03-15T11:10:44.499Z,2.05
2023-03-15T11:13:33.491Z,2.20
2023-03-15T11:16:15.474Z,2.13
2023-03-15T11:21:29.103Z,1.73
2023-03-15T11:23:57.296Z,1.70
2023-03-15T11:26:32.592Z,2.00
2023-03-15T11:29:25.951Z,1.90
2023-03-15T11:31:55.384Z,2.05
2023-03-15T11:34:46.293Z,2.15
2023-03-15T11:38:03.147Z,1.88
2023-03-15T11:40:36.990Z,2.22
2023-03-15T11:43:28.649Z,1.55
2023-03-15T11:46:29.697Z,1.80
2023-03-15T11:49:04.935Z,1.60
2023-03-15T11:51:36.203Z,1.92
2023-03-15T11:54:11.390Z,1.85
2023-03-15T11:56:44.554Z,1.70
2023-03-15T11:59:28.573Z,1.48
2023-03-15T12:02:01.058Z,1.30
2023-03-15T12:04:45.199Z,1.80
2023-03-15T12:07:24.015Z,2.20
2023-03-15T12:09:56.398Z,1.70
2023-03-15T12:12:26.527Z,1.60
2023-03-15T12:15:14.930Z,1.48
2023-03-15T12:17:56.790Z,1.48
2023-03-15T12:20:43.185Z,1.70
2023-03-15T12:23:19.737Z,1.10
2023-03-15T12:25:58.138Z,1.40
2023-03-15T12:28:42.128Z,1.50
2023-03-15T12:31:13.752Z,1.40
2023-03-15T12:34:01.419Z,1.58
2023-03-15T12:36:38.310Z,1.23
2023-03-15T12:39:14.523Z,1.30
2023-03-15T12:41:48.943Z,1.20
2023-03-15T12:44:20.312Z,1.10
2023-03-15T12:46:47.344Z,1.08
2023-03-15T12:49:34.636Z,1.15
2023-03-15T12:52:15.885Z,1.30
2023-03-15T12:54:52.301Z,1.05
2023-03-15T12:57:50.841Z,0.95
2023-03-15T13:00:30.466Z,1.00
2023-03-15T13:03:12.438Z,0.93
2023-03-15T13:08:54.985Z,1.00
2023-03-15T13:12:01.724Z,1.02
2023-03-15T13:15:02.209Z,1.00
2023-03-15T13:17:48.061Z,1.45
2023-03-15T13:20:27.225Z,1.20
2023-03-15T13:23:26.713Z,1.17
2023-03-15T13:26:20.687Z,1.13
2023-03-15T13:28:59.261Z,1.00
2023-03-15T13:31:31.465Z,1.00
2023-03-15T13:34:22.718Z,1.00
2023-03-15T13:36:56.532Z,0.98
2023-03-15T13:39:27.687Z,0.80
2023-03-15T13:42:05.033Z,0.82
2023-03-15T13:44:33.517Z,0.70
2023-03-15T13:47:00.937Z,0.88
2023-03-15T13:49:33.953Z,0.63
2023-03-15T13:52:06.896Z,0.90
2023-03-15T13:54:35.073Z,0.88
2023-03-15T13:57:20.445Z,0.90
2023-03-15T13:59:55.663Z,0.98
2023-03-15T14:02:46.470Z,1.00
2023-03-15T14:05:18.862Z,1.08
2023-03-15T14:07:49.140Z,1.02
2023-03-15T14:10:34.975Z,1.02
2023-03-15T14:13:31.899Z,0.90
2023-03-15T14:16:06.515Z,0.68
2023-03-15T14:18:39.535Z,1.00
2023-03-15T14:21:11.403Z,0.85
2023-03-15T14:23:45.242Z,0.80
2023-03-15T14:26:18.555Z,0.80
2023-03-15T14:29:29.730Z,0.70
2023-03-15T14:32:06.236Z,0.60
2023-03-15T14:34:45.219Z,0.50
2023-03-15T14:37:38.976Z,0.60
2023-03-15T14:40:22.918Z,0.77
2023-03-15T14:42:50.885Z,0.60
2023-03-15T14:45:22.240Z,0.75
2023-03-15T14:48:01.853Z,0.60
2023-03-15T14:50:36.015Z,0.90
2023-03-15T14:53:07.437Z,1.15
2023-03-15T14:55:38.424Z,0.82
2023-03-15T14:58:21.297Z,0.80
2023-03-15T15:00:51.854Z,0.73
2023-03-15T15:03:33.775Z,0.70
2023-03-15T15:08:30.597Z,0.68
2023-03-15T15:10:58.043Z,0.90
2023-03-15T15:13:28.750Z,1.00
2023-03-15T15:15:57.250Z,1.10
2023-03-15T15:18:28.127Z,1.30
2023-03-15T15:21:03.047Z,1.30
2023-03-15T15:23:36.126Z,0.95
2023-03-15T15:26:08.064Z,0.80
2023-03-15T15:28:37.216Z,0.90
2023-03-15T15:31:07.260Z,1.00
2023-03-15T15:33:35.293Z,1.10
2023-03-15T15:36:03.141Z,0.98
2023-03-15T15:38:39.147Z,1.00
2023-03-15T15:41:14.025Z,0.98
2023-03-15T15:43:43.283Z,1.20
2023-03-15T15:46:12.528Z,0.75
2023-03-15T15:48:40.691Z,0.90
2023-03-15T15:51:49.742Z,0.90
2023-03-15T15:54:20.625Z,0.90
2023-03-15T15:56:55.488Z,0.70
2023-03-15T15:59:25.631Z,0.70
2023-03-15T16:02:00.789Z,0.93
2023-03-15T16:04:29.985Z,0.68
2023-03-15T16:07:01.765Z,1.00
2023-03-15T16:09:32.131Z,1.08
2023-03-15T16:11:59.358Z,0.90
2023-03-15T16:14:26.536Z,1.38
2023-03-15T16:16:53.706Z,0.90
2023-03-15T16:19:20.781Z,1.08
2023-03-15T16:21:50.516Z,0.98
2023-03-15T16:24:30.877Z,1.00
2023-03-15T16:27:05.123Z,1.38
2023-03-15T16:29:47.426Z,0.90
2023-03-15T16:32:32.859Z,0.80
2023-03-15T16:35:15.820Z,0.75
2023-03-15T16:37:44.649Z,0.80
2023-03-15T16:40:27.466Z,0.70
2023-03-15T16:42:55.667Z,0.63
2023-03-15T16:45:23.667Z,0.70
2023-03-15T16:47:51.330Z,1.65
2023-03-15T16:50:19.183Z,2.70
2023-03-15T16:52:48.741Z,4.47
2023-03-15T16:55:24.052Z,3.20
2023-03-15T16:57:51.214Z,3.70
2023-03-15T17:00:20.379Z,3.08
2023-03-15T17:02:51.733Z,2.10
2023-03-15T17:05:21.033Z,2.42
2023-03-15T17:07:51.026Z,2.20
2023-03-15T17:10:27.468Z,1.70
2023-03-15T17:12:56.514Z,1.40
2023-03-15T17:15:26.396Z,1.40
2023-03-15T17:17:57.884Z,1.35
2023-03-15T17:20:29.793Z,1.25
2023-03-15T17:25:33.374Z,1.25
2023-03-15T17:28:00.651Z,1.13
2023-03-15T17:30:31.984Z,1.25
2023-03-15T17:32:59.392Z,0.93
2023-03-15T17:35:34.611Z,1.10
2023-03-15T17:38:05.965Z,1.00
2023-03-15T17:40:36.124Z,0.60
2023-03-15T17:43:05.005Z,0.52
2023-03-15T17:45:34.116Z,0.77
2023-03-15T17:48:01.908Z,0.63
2023-03-15T17:50:32.794Z,0.70
2023-03-15T17:53:15.151Z,0.70
2023-03-15T17:55:42.481Z,0.70
2023-03-15T17:58:19.943Z,0.80
2023-03-15T18:00:48.691Z,0.80
2023-03-15T18:03:17.245Z,0.80
2023-03-15T18:05:44.593Z,0.65
2023-03-15T18:08:14.585Z,0.88
2023-03-15T18:10:42.182Z,0.70
2023-03-15T18:13:14.465Z,1.10
2023-03-15T18:15:41.671Z,1.20
2023-03-15T18:18:09.067Z,2.22
2023-03-15T18:20:36.668Z,1.45
2023-03-15T18:23:05.090Z,1.23
2023-03-15T18:25:34.913Z,1.00
2023-03-15T18:28:02.325Z,1.00
2023-03-15T18:30:31.691Z,1.13
2023-03-15T18:32:59.800Z,1.10
2023-03-15T18:35:33.738Z,1.00
2023-03-15T18:38:01.355Z,0.90
2023-03-15T18:40:30.601Z,1.00
2023-03-15T18:42:58.730Z,0.88
2023-03-15T18:45:34.214Z,0.75
2023-03-15T18:48:01.554Z,0.80
2023-03-15T18:50:29.491Z,0.63
2023-03-15T18:52:57.335Z,0.60
2023-03-15T18:55:24.778Z,0.70
2023-03-15T18:57:54.069Z,0.80
2023-03-15T19:00:34.943Z,0.60
2023-03-15T19:03:04.441Z,0.60
2023-03-15T19:05:36.277Z,0.70
2023-03-15T19:08:04.162Z,0.90
2023-03-15T19:10:31.280Z,1.20
2023-03-15T19:13:04.017Z,0.90
2023-03-15T19:15:32.088Z,1.00
2023-03-15T19:17:59.459Z,1.30
2023-03-15T19:20:26.729Z,1.42
2023-03-15T19:22:53.806Z,1.00
2023-03-15T19:25:21.597Z,0.70
2023-03-15T19:27:49.060Z,0.90
2023-03-15T19:30:22.179Z,0.60
2023-03-15T19:32:50.654Z,0.80
2023-03-15T19:35:19.587Z,0.80
2023-03-15T19:37:48.137Z,0.60
2023-03-15T19:40:17.198Z,0.90
2023-03-15T19:42:44.879Z,0.73
2023-03-15T19:45:14.978Z,0.80
2023-03-15T19:47:42.339Z,0.63
2023-03-15T19:50:12.915Z,0.80
2023-03-15T19:52:46.076Z,0.63
2023-03-15T19:55:20.863Z,0.85
2023-03-15T19:57:48.275Z,0.80
2023-03-15T20:00:18.915Z,0.60
2023-03-15T20:02:47.041Z,0.68
2023-03-15T20:05:17.309Z,0.80
2023-03-15T20:07:44.784Z,0.80
2023-03-15T20:10:13.969Z,0.77
2023-03-15T20:12:42.739Z,0.90
2023-03-15T20:15:13.094Z,0.75
2023-03-15T20:17:41.160Z,0.70
2023-03-15T20:20:11.012Z,0.93
2023-03-15T20:22:41.202Z,0.82
2023-03-15T20:25:10.923Z,1.00
2023-03-15T20:27:38.679Z,0.93
2023-03-15T20:30:08.484Z,0.90
2023-03-15T20:32:35.973Z,1.00
2023-03-15T20:35:07.495Z,0.85
2023-03-15T20:37:35.685Z,1.17
2023-03-15T20:40:09.283Z,1.00
2023-03-15T20:42:36.455Z,0.93
2023-03-15T20:45:05.484Z,0.77
2023-03-15T20:47:34.981Z,0.90
2023-03-15T20:50:03.575Z,0.75
2023-03-15T20:52:33.942Z,0.90
2023-03-15T20:55:01.501Z,0.98
2023-03-15T20:57:28.809Z,1.10
2023-03-15T20:59:55.888Z,0.90
2023-03-15T21:02:23.980Z,1.10
2023-03-15T21:04:51.886Z,0.93
2023-03-15T21:07:19.016Z,0.88
2023-03-15T21:09:46.128Z,0.80
2023-03-15T21:12:13.507Z,1.10
2023-03-15T21:14:40.560Z,1.00
2023-03-15T21:17:07.741Z,0.95
2023-03-15T21:19:34.750Z,1.13
2023-03-15T21:22:01.797Z,1.00
2023-03-15T21:24:31.781Z,1.00
2023-03-15T21:26:59.436Z,0.75
2023-03-15T21:29:26.524Z,1.20
2023-03-15T21:31:53.612Z,0.95
2023-03-15T21:34:20.687Z,1.17
2023-03-15T21:36:47.820Z,1.00
2023-03-15T21:39:14.968Z,0.90
2023-03-15T21:41:42.226Z,0.98
2023-03-15T21:44:09.399Z,1.02
2023-03-15T21:46:36.758Z,1.10
2023-03-15T21:49:04.409Z,1.23
2023-03-15T21:51:34.165Z,1.30
2023-03-15T21:54:01.903Z,1.02
2023-03-15T21:56:29.192Z,0.73
2023-03-15T21:58:56.412Z,0.93
2023-03-15T22:01:24.834Z,1.15
2023-03-15T22:03:55.429Z,1.00
2023-03-15T22:06:22.977Z,1.17
2023-03-15T22:08:50.344Z,1.40
2023-03-15T22:11:17.414Z,1.00
2023-03-15T22:13:44.588Z,1.10
2023-03-15T22:16:13.470Z,1.25
2023-03-15T22:18:41.050Z,1.00
2023-03-15T22:21:08.144Z,1.00
2023-03-15T22:23:35.202Z,1.20
2023-03-15T22:26:02.352Z,1.00
2023-03-15T22:28:29.422Z,1.10
2023-03-15T22:30:56.688Z,1.30
2023-03-15T22:33:26.294Z,1.20
2023-03-15T22:35:58.608Z,1.10
2023-03-15T22:38:26.702Z,1.20
2023-03-15T22:41:09.124Z,1.10
2023-03-15T22:43:38.899Z,1.00
2023-03-15T22:46:06.130Z,1.10
2023-03-15T22:48:33.394Z,1.33
2023-03-15T22:51:06.217Z,1.17
2023-03-15T22:53:33.965Z,0.93
2023-03-15T22:56:01.287Z,1.02
2023-03-15T22:58:28.505Z,0.85
2023-03-15T23:00:55.903Z,1.15
2023-03-15T23:03:23.278Z,1.30
2023-03-15T23:05:50.675Z,1.05
2023-03-15T23:08:17.774Z,1.10
2023-03-15T23:10:47.152Z,1.20
2023-03-15T23:13:14.806Z,1.10
2023-03-15T23:15:42.115Z,1.10
2023-03-15T23:18:09.770Z,0.90
2023-03-15T23:20:37.683Z,1.10
2023-03-15T23:23:04.816Z,1.23
2023-03-15T23:25:35.851Z,1.10
2023-03-15T23:28:02.991Z,1.10
2023-03-15T23:30:35.565Z,0.90
2023-03-15T23:33:03.939Z,1.25
2023-03-15T23:35:32.043Z,0.90
2023-03-15T23:37:59.248Z,1.20
2023-03-15T23:40:26.907Z,1.30
2023-03-15T23:42:59.329Z,1.13
2023-03-15T23:45:30.104Z,1.20
2023-03-15T23:47:57.954Z,1.40
2023-03-15T23:50:26.334Z,1.30
2023-03-15T23:52:55.933Z,1.20
2023-03-15T23:55:24.300Z,1.10
2023-03-15T23:57:51.626Z,1.33
